sensor_id;sensor_type;location;lat;lon;timestamp;pressure;altitude;pressure_sealevel;temperature;humidity
67430;BME280;54298;52.076;5.264;2023-02-14T00:01:57;103424.0;;;2.65;81.72
67430;BME280;54298;52.076;5.264;2023-02-14T00:03:33;103426.0;;;2.76;80.8
67430;BME280;54298;52.076;5.264;2023-02-14T00:05:10;103427.0;;;2.23;82.59
67430;BME280;54298;52.076;5.264;2023-02-14T00:08:23;103426.0;;;2.14;82.88
67430;BME280;54298;52.076;5.264;2023-02-14T00:09:59;103430.0;;;2.16;83.03
67430;BME280;54298;52.076;5.264;2023-02-14T00:11:35;103431.0;;;2.59;81.37
67430;BME280;54298;52.076;5.264;2023-02-14T00:15:53;103429.0;;;2.52;81.02
67430;BME280;54298;52.076;5.264;2023-02-14T00:17:30;103423.0;;;2.54;80.75
67430;BME280;54298;52.076;5.264;2023-02-14T00:20:43;103419.0;;;2.46;80.98
67430;BME280;54298;52.076;5.264;2023-02-14T00:22:19;103420.0;;;2.5;80.73
67430;BME280;54298;52.076;5.264;2023-02-14T00:23:55;103422.0;;;2.5;80.56
67430;BME280;54298;52.076;5.264;2023-02-14T00:27:09;103419.0;;;2.42;80.78
67430;BME280;54298;52.076;5.264;2023-02-14T00:28:45;103411.99999999999;;;2.13;82.06
67430;BME280;54298;52.076;5.264;2023-02-14T00:30:21;103413.00000000001;;;2.21;82.05
67430;BME280;54298;52.076;5.264;2023-02-14T00:33:34;103417.0;;;1.88;82.8
67430;BME280;54298;52.076;5.264;2023-02-14T00:35:11;103408.0;;;1.89;82.81
67430;BME280;54298;52.076;5.264;2023-02-14T00:36:50;103415.00000000001;;;2.31;81.44
67430;BME280;54298;52.076;5.264;2023-02-14T00:38:27;103408.0;;;2.38;80.3
67430;BME280;54298;52.076;5.264;2023-02-14T00:41:42;103413.00000000001;;;1.97;81.8
67430;BME280;54298;52.076;5.264;2023-02-14T00:43:18;103414.00000000001;;;2.0;81.5
67430;BME280;54298;52.076;5.264;2023-02-14T00:44:54;103406.0;;;1.98;81.64
67430;BME280;54298;52.076;5.264;2023-02-14T00:48:08;103405.0;;;2.32;80.14
67430;BME280;54298;52.076;5.264;2023-02-14T00:49:44;103406.0;;;2.4;79.48
67430;BME280;54298;52.076;5.264;2023-02-14T00:51:21;103405.0;;;2.02;80.28
67430;BME280;54298;52.076;5.264;2023-02-14T00:54:33;103406.0;;;1.7;82.13
67430;BME280;54298;52.076;5.264;2023-02-14T00:56:10;103403.0;;;2.04;80.87
67430;BME280;54298;52.076;5.264;2023-02-14T00:57:47;103403.0;;;2.15;80.19
67430;BME280;54298;52.076;5.264;2023-02-14T00:59:23;103398.0;;;2.02;80.27
67430;BME280;54298;52.076;5.264;2023-02-14T01:02:35;103404.0;;;1.57;81.91
67430;BME280;54298;52.076;5.264;2023-02-14T01:04:11;103398.0;;;1.59;82.63
67430;BME280;54298;52.076;5.264;2023-02-14T01:05:48;103397.0;;;1.86;81.2
67430;BME280;54298;52.076;5.264;2023-02-14T01:09:01;103396.0;;;1.94;81.05
67430;BME280;54298;52.076;5.264;2023-02-14T01:10:38;103394.0;;;2.05;80.5
67430;BME280;54298;52.076;5.264;2023-02-14T01:12:15;103401.0;;;2.0;80.58
67430;BME280;54298;52.076;5.264;2023-02-14T01:15:32;103393.0;;;1.63;81.83
67430;BME280;54298;52.076;5.264;2023-02-14T01:17:13;103395.0;;;1.6;81.91
67430;BME280;54298;52.076;5.264;2023-02-14T01:18:49;103395.0;;;1.88;81.22
67430;BME280;54298;52.076;5.264;2023-02-14T01:20:26;103392.0;;;1.8;80.91
67430;BME280;54298;52.076;5.264;2023-02-14T01:23:38;103384.99999999999;;;1.71;81.47
67430;BME280;54298;52.076;5.264;2023-02-14T01:25:16;103393.0;;;1.76;81.05
67430;BME280;54298;52.076;5.264;2023-02-14T01:26:53;103384.99999999999;;;1.76;81.17
67430;BME280;54298;52.076;5.264;2023-02-14T01:30:06;103382.0;;;1.78;81.05
67430;BME280;54298;52.076;5.264;2023-02-14T01:31:44;103386.99999999999;;;1.83;80.87
67430;BME280;54298;52.076;5.264;2023-02-14T01:33:20;103383.0;;;1.74;80.86
67430;BME280;54298;52.076;5.264;2023-02-14T01:34:56;103383.0;;;1.8;80.81
67430;BME280;54298;52.076;5.264;2023-02-14T01:38:13;103383.99999999999;;;1.79;80.8
67430;BME280;54298;52.076;5.264;2023-02-14T01:39:50;103384.99999999999;;;1.51;81.78
67430;BME280;54298;52.076;5.264;2023-02-14T01:41:28;103383.0;;;1.73;81.11
67430;BME280;54298;52.076;5.264;2023-02-14T01:44:58;103384.99999999999;;;1.81;80.58
67430;BME280;54298;52.076;5.264;2023-02-14T01:46:41;103383.0;;;1.82;80.77
67430;BME280;54298;52.076;5.264;2023-02-14T01:48:19;103388.00000000001;;;1.69;81.3
67430;BME280;54298;52.076;5.264;2023-02-14T01:50:02;103382.0;;;1.58;81.93
67430;BME280;54298;52.076;5.264;2023-02-14T01:51:44;103379.0;;;1.61;81.98
67430;BME280;54298;52.076;5.264;2023-02-14T01:55:05;103374.0;;;1.51;82.22
67430;BME280;54298;52.076;5.264;2023-02-14T01:56:48;103374.0;;;1.5;82.02
67430;BME280;54298;52.076;5.264;2023-02-14T01:58:28;103377.0;;;1.34;82.58
67430;BME280;54298;52.076;5.264;2023-02-14T02:01:11;103379.0;;;1.4;82.53
67430;BME280;54298;52.076;5.264;2023-02-14T02:02:49;103380.0;;;1.32;82.71
67430;BME280;54298;52.076;5.264;2023-02-14T02:04:29;103379.0;;;1.62;81.93
67430;BME280;54298;52.076;5.264;2023-02-14T02:07:50;103377.0;;;1.48;82.09
67430;BME280;54298;52.076;5.264;2023-02-14T02:09:33;103377.0;;;1.37;82.63
67430;BME280;54298;52.076;5.264;2023-02-14T02:11:10;103379.0;;;1.39;82.61
67430;BME280;54298;52.076;5.264;2023-02-14T02:12:47;103375.0;;;1.42;82.64
67430;BME280;54298;52.076;5.264;2023-02-14T02:16:17;103378.0;;;1.5;82.15
67430;BME280;54298;52.076;5.264;2023-02-14T02:18:02;103377.0;;;1.53;82.05
67430;BME280;54298;52.076;5.264;2023-02-14T02:20:02;103377.0;;;1.36;82.81
67430;BME280;54298;52.076;5.264;2023-02-14T02:24:09;103378.0;;;1.31;83.12
67430;BME280;54298;52.076;5.264;2023-02-14T02:28:31;103379.0;;;1.2;83.28
67430;BME280;54298;52.076;5.264;2023-02-14T02:30:33;103377.0;;;1.37;82.73
67430;BME280;54298;52.076;5.264;2023-02-14T02:33:42;103376.0;;;1.42;82.48
67430;BME280;54298;52.076;5.264;2023-02-14T02:36:29;103376.0;;;1.47;82.25
67430;BME280;54298;52.076;5.264;2023-02-14T02:38:30;103376.0;;;1.46;82.12
67430;BME280;54298;52.076;5.264;2023-02-14T02:40:23;103370.0;;;1.47;81.81
67430;BME280;54298;52.076;5.264;2023-02-14T02:42:11;103370.0;;;1.41;82.06
67430;BME280;54298;52.076;5.264;2023-02-14T02:44:02;103370.0;;;1.39;82.04
67430;BME280;54298;52.076;5.264;2023-02-14T02:48:40;103365.00000000001;;;1.38;82.28
67430;BME280;54298;52.076;5.264;2023-02-14T02:54:33;103369.0;;;1.33;82.2
67430;BME280;54298;52.076;5.264;2023-02-14T02:59:03;103367.0;;;1.34;82.49
67430;BME280;54298;52.076;5.264;2023-02-14T03:00:45;103369.0;;;1.49;81.42
67430;BME280;54298;52.076;5.264;2023-02-14T03:05:09;103371.0;;;1.34;81.94
67430;BME280;54298;52.076;5.264;2023-02-14T03:06:46;103361.99999999999;;;1.28;82.1
67430;BME280;54298;52.076;5.264;2023-02-14T03:08:22;103356.0;;;1.22;82.31
67430;BME280;54298;52.076;5.264;2023-02-14T03:10:00;103354.0;;;1.18;82.45
67430;BME280;54298;52.076;5.264;2023-02-14T03:11:38;103353.0;;;1.23;82.3
67430;BME280;54298;52.076;5.264;2023-02-14T03:13:38;103350.0;;;1.15;82.62
67430;BME280;54298;52.076;5.264;2023-02-14T03:16:19;103348.0;;;1.16;82.64
67430;BME280;54298;52.076;5.264;2023-02-14T03:20:43;103349.0;;;1.28;82.21
67430;BME280;54298;52.076;5.264;2023-02-14T03:22:29;103351.0;;;1.32;82.03
67430;BME280;54298;52.076;5.264;2023-02-14T03:24:20;103348.0;;;1.28;81.99
67430;BME280;54298;52.076;5.264;2023-02-14T03:26:08;103349.0;;;1.2;82.09
67430;BME280;54298;52.076;5.264;2023-02-14T03:27:55;103349.0;;;1.19;82.32
67430;BME280;54298;52.076;5.264;2023-02-14T03:31:29;103348.0;;;0.99;82.72
67430;BME280;54298;52.076;5.264;2023-02-14T03:33:13;103346.0;;;1.22;82.28
67430;BME280;54298;52.076;5.264;2023-02-14T03:34:59;103348.0;;;1.39;81.55
67430;BME280;54298;52.076;5.264;2023-02-14T03:36:43;103345.0;;;1.34;81.33
67430;BME280;54298;52.076;5.264;2023-02-14T03:38:30;103344.0;;;1.18;81.83
67430;BME280;54298;52.076;5.264;2023-02-14T03:41:53;103348.0;;;1.12;82.15
67430;BME280;54298;52.076;5.264;2023-02-14T03:43:38;103342.0;;;1.1;82.34
67430;BME280;54298;52.076;5.264;2023-02-14T03:45:26;103345.0;;;1.04;82.54
67430;BME280;54298;52.076;5.264;2023-02-14T03:47:07;103348.0;;;1.06;82.66
67430;BME280;54298;52.076;5.264;2023-02-14T03:48:47;103346.0;;;1.16;82.03
67430;BME280;54298;52.076;5.264;2023-02-14T03:52:06;103345.0;;;1.17;81.81
67430;BME280;54298;52.076;5.264;2023-02-14T03:53:49;103343.0;;;0.98;82.15
67430;BME280;54298;52.076;5.264;2023-02-14T03:55:34;103342.0;;;0.99;82.4
67430;BME280;54298;52.076;5.264;2023-02-14T03:57:19;103342.0;;;1.27;81.47
67430;BME280;54298;52.076;5.264;2023-02-14T04:00:42;103342.0;;;1.24;81.34
67430;BME280;54298;52.076;5.264;2023-02-14T04:02:26;103347.0;;;0.73;82.91
67430;BME280;54298;52.076;5.264;2023-02-14T04:04:04;103346.0;;;0.78;82.97
67430;BME280;54298;52.076;5.264;2023-02-14T04:05:45;103342.0;;;0.98;82.15
67430;BME280;54298;52.076;5.264;2023-02-14T04:08:59;103341.00000000001;;;0.9;82.58
67430;BME280;54298;52.076;5.264;2023-02-14T04:10:36;103343.0;;;1.12;81.53
67430;BME280;54298;52.076;5.264;2023-02-14T04:12:14;103346.0;;;1.02;81.61
67430;BME280;54298;52.076;5.264;2023-02-14T04:13:53;103350.0;;;1.18;81.37
67430;BME280;54298;52.076;5.264;2023-02-14T04:19:26;103346.0;;;1.04;81.33
67430;BME280;54298;52.076;5.264;2023-02-14T04:21:04;103349.0;;;0.92;81.83
67430;BME280;54298;52.076;5.264;2023-02-14T04:22:40;103349.0;;;0.88;82.07
67430;BME280;54298;52.076;5.264;2023-02-14T04:24:17;103349.0;;;0.97;81.94
67430;BME280;54298;52.076;5.264;2023-02-14T04:27:30;103348.0;;;0.91;81.91
67430;BME280;54298;52.076;5.264;2023-02-14T04:29:06;103350.0;;;0.79;82.58
67430;BME280;54298;52.076;5.264;2023-02-14T04:30:42;103348.0;;;0.85;82.54
67430;BME280;54298;52.076;5.264;2023-02-14T04:33:58;103348.0;;;0.88;82.39
67430;BME280;54298;52.076;5.264;2023-02-14T04:35:34;103349.0;;;0.89;82.17
67430;BME280;54298;52.076;5.264;2023-02-14T04:37:10;103347.0;;;0.73;83.04
67430;BME280;54298;52.076;5.264;2023-02-14T04:40:23;103338.00000000001;;;0.8;82.96
67430;BME280;54298;52.076;5.264;2023-02-14T04:41:59;103340.00000000001;;;0.72;82.92
67430;BME280;54298;52.076;5.264;2023-02-14T04:43:35;103340.00000000001;;;0.87;82.7
67430;BME280;54298;52.076;5.264;2023-02-14T04:45:12;103340.00000000001;;;0.77;82.94
67430;BME280;54298;52.076;5.264;2023-02-14T04:48:25;103342.0;;;0.8;82.75
67430;BME280;54298;52.076;5.264;2023-02-14T04:50:01;103336.99999999999;;;0.76;83.16
67430;BME280;54298;52.076;5.264;2023-02-14T04:51:38;103341.00000000001;;;0.72;83.62
67430;BME280;54298;52.076;5.264;2023-02-14T04:54:50;103343.0;;;0.78;83.73
67430;BME280;54298;52.076;5.264;2023-02-14T04:56:28;103336.99999999999;;;0.89;83.36
67430;BME280;54298;52.076;5.264;2023-02-14T04:58:04;103334.99999999999;;;0.98;82.81
67430;BME280;54298;52.076;5.264;2023-02-14T05:01:16;103334.99999999999;;;0.89;83.14
67430;BME280;54298;52.076;5.264;2023-02-14T05:02:52;103334.99999999999;;;1.01;82.53
67430;BME280;54298;52.076;5.264;2023-02-14T05:04:28;103327.0;;;0.82;82.84
67430;BME280;54298;52.076;5.264;2023-02-14T05:06:05;103329.0;;;1.05;82.4
67430;BME280;54298;52.076;5.264;2023-02-14T05:09:18;103326.0;;;1.06;82.03
67430;BME280;54298;52.076;5.264;2023-02-14T05:10:54;103327.0;;;0.98;82.63
67430;BME280;54298;52.076;5.264;2023-02-14T05:12:30;103322.0;;;1.0;82.34
67430;BME280;54298;52.076;5.264;2023-02-14T05:15:44;103326.0;;;0.84;82.61
67430;BME280;54298;52.076;5.264;2023-02-14T05:17:20;103326.0;;;0.74;83.27
67430;BME280;54298;52.076;5.264;2023-02-14T05:18:56;103331.0;;;0.58;83.87
67430;BME280;54298;52.076;5.264;2023-02-14T05:22:08;103330.0;;;0.8;83.33
67430;BME280;54298;52.076;5.264;2023-02-14T05:23:45;103330.0;;;0.91;83.18
67430;BME280;54298;52.076;5.264;2023-02-14T05:25:21;103331.0;;;0.83;83.14
67430;BME280;54298;52.076;5.264;2023-02-14T05:28:34;103325.0;;;0.75;83.6
67430;BME280;54298;52.076;5.264;2023-02-14T05:30:12;103325.0;;;0.8;83.5
67430;BME280;54298;52.076;5.264;2023-02-14T05:31:48;103327.0;;;0.84;83.48
67430;BME280;54298;52.076;5.264;2023-02-14T05:33:25;103321.0;;;0.92;82.99
67430;BME280;54298;52.076;5.264;2023-02-14T05:36:39;103326.0;;;0.96;82.79
67430;BME280;54298;52.076;5.264;2023-02-14T05:38:15;103326.0;;;0.77;83.47
67430;BME280;54298;52.076;5.264;2023-02-14T05:39:51;103323.0;;;0.73;83.75
67430;BME280;54298;52.076;5.264;2023-02-14T05:43:05;103333.0;;;0.8;83.6
67430;BME280;54298;52.076;5.264;2023-02-14T05:44:42;103325.0;;;0.93;83.23
67430;BME280;54298;52.076;5.264;2023-02-14T05:46:18;103321.0;;;0.87;83.3
67430;BME280;54298;52.076;5.264;2023-02-14T05:49:30;103330.0;;;0.96;83.19
67430;BME280;54298;52.076;5.264;2023-02-14T05:51:08;103330.0;;;0.97;83.03
67430;BME280;54298;52.076;5.264;2023-02-14T05:52:45;103338.00000000001;;;1.04;82.85
67430;BME280;54298;52.076;5.264;2023-02-14T05:54:21;103328.0;;;1.02;82.89
67430;BME280;54298;52.076;5.264;2023-02-14T05:57:33;103331.0;;;1.03;82.69
67430;BME280;54298;52.076;5.264;2023-02-14T05:59:10;103334.99999999999;;;0.97;82.89
67430;BME280;54298;52.076;5.264;2023-02-14T06:00:46;103333.0;;;1.01;82.87
67430;BME280;54298;52.076;5.264;2023-02-14T06:03:59;103329.0;;;0.96;83.01
67430;BME280;54298;52.076;5.264;2023-02-14T06:05:35;103330.0;;;1.0;82.99
67430;BME280;54298;52.076;5.264;2023-02-14T06:07:11;103327.0;;;1.07;82.62
67430;BME280;54298;52.076;5.264;2023-02-14T06:10:24;103323.0;;;1.05;82.65
67430;BME280;54298;52.076;5.264;2023-02-14T06:12:00;103323.0;;;1.01;82.82
67430;BME280;54298;52.076;5.264;2023-02-14T06:13:37;103320.0;;;0.95;82.97
67430;BME280;54298;52.076;5.264;2023-02-14T06:15:13;103323.0;;;0.93;83.21
67430;BME280;54298;52.076;5.264;2023-02-14T06:18:28;103327.0;;;0.87;83.48
67430;BME280;54298;52.076;5.264;2023-02-14T06:20:06;103325.0;;;0.91;83.48
67430;BME280;54298;52.076;5.264;2023-02-14T06:21:42;103323.0;;;0.81;83.96
67430;BME280;54298;52.076;5.264;2023-02-14T06:24:54;103333.0;;;0.78;84.31
67430;BME280;54298;52.076;5.264;2023-02-14T06:26:32;103333.0;;;0.95;83.93
67430;BME280;54298;52.076;5.264;2023-02-14T06:28:08;103331.0;;;0.89;84.0
67430;BME280;54298;52.076;5.264;2023-02-14T06:31:20;103329.0;;;1.0;83.96
67430;BME280;54298;52.076;5.264;2023-02-14T06:32:57;103338.00000000001;;;1.01;83.65
67430;BME280;54298;52.076;5.264;2023-02-14T06:34:39;103333.0;;;1.03;83.65
67430;BME280;54298;52.076;5.264;2023-02-14T06:36:15;103341.00000000001;;;1.04;83.28
67430;BME280;54298;52.076;5.264;2023-02-14T06:39:28;103344.0;;;1.0;83.53
67430;BME280;54298;52.076;5.264;2023-02-14T06:41:07;103341.00000000001;;;0.98;83.99
67430;BME280;54298;52.076;5.264;2023-02-14T06:42:43;103342.0;;;0.97;83.99
67430;BME280;54298;52.076;5.264;2023-02-14T06:45:56;103340.00000000001;;;1.11;83.7
67430;BME280;54298;52.076;5.264;2023-02-14T06:47:32;103338.00000000001;;;0.97;83.76
67430;BME280;54298;52.076;5.264;2023-02-14T06:49:08;103332.0;;;1.11;83.66
67430;BME280;54298;52.076;5.264;2023-02-14T06:50:45;103341.00000000001;;;1.06;83.53
67430;BME280;54298;52.076;5.264;2023-02-14T06:53:58;103330.0;;;1.1;83.62
67430;BME280;54298;52.076;5.264;2023-02-14T06:55:34;103334.99999999999;;;1.02;83.85
67430;BME280;54298;52.076;5.264;2023-02-14T06:57:11;103334.99999999999;;;1.06;84.02
67430;BME280;54298;52.076;5.264;2023-02-14T07:00:23;103333.0;;;1.04;84.06
67430;BME280;54298;52.076;5.264;2023-02-14T07:01:59;103332.0;;;1.14;83.62
67430;BME280;54298;52.076;5.264;2023-02-14T07:03:35;103334.99999999999;;;1.23;83.39
67430;BME280;54298;52.076;5.264;2023-02-14T07:06:48;103333.99999999999;;;1.25;83.23
67430;BME280;54298;52.076;5.264;2023-02-14T07:08:24;103329.0;;;1.2;83.11
67430;BME280;54298;52.076;5.264;2023-02-14T07:11:38;103334.99999999999;;;0.99;83.7
67430;BME280;54298;52.076;5.264;2023-02-14T07:14:50;103331.0;;;1.13;83.45
67430;BME280;54298;52.076;5.264;2023-02-14T07:16:27;103333.0;;;0.94;84.39
67430;BME280;54298;52.076;5.264;2023-02-14T07:18:04;103330.0;;;0.86;84.89
67430;BME280;54298;52.076;5.264;2023-02-14T07:21:16;103338.00000000001;;;0.86;85.25
67430;BME280;54298;52.076;5.264;2023-02-14T07:22:54;103334.99999999999;;;0.93;85.09
67430;BME280;54298;52.076;5.264;2023-02-14T07:24:30;103333.99999999999;;;1.16;84.55
67430;BME280;54298;52.076;5.264;2023-02-14T07:27:43;103338.00000000001;;;1.25;83.98
67430;BME280;54298;52.076;5.264;2023-02-14T07:29:19;103333.0;;;1.27;83.96
67430;BME280;54298;52.076;5.264;2023-02-14T07:30:58;103331.0;;;1.2;84.3
67430;BME280;54298;52.076;5.264;2023-02-14T07:32:35;103336.99999999999;;;1.18;85.01
67430;BME280;54298;52.076;5.264;2023-02-14T07:35:50;103334.99999999999;;;1.29;84.9
67430;BME280;54298;52.076;5.264;2023-02-14T07:37:26;103336.99999999999;;;1.19;85.16
67430;BME280;54298;52.076;5.264;2023-02-14T07:39:02;103339.00000000001;;;1.26;85.54
67430;BME280;54298;52.076;5.264;2023-02-14T07:42:15;103341.00000000001;;;1.29;85.64
67430;BME280;54298;52.076;5.264;2023-02-14T07:43:51;103340.00000000001;;;1.38;85.45
67430;BME280;54298;52.076;5.264;2023-02-14T07:45:27;103343.0;;;1.48;85.06
67430;BME280;54298;52.076;5.264;2023-02-14T07:48:41;103336.99999999999;;;1.46;84.92
67430;BME280;54298;52.076;5.264;2023-02-14T07:50:17;103336.99999999999;;;1.46;84.79
67430;BME280;54298;52.076;5.264;2023-02-14T07:51:54;103344.0;;;1.42;84.96
67430;BME280;54298;52.076;5.264;2023-02-14T07:53:30;103347.0;;;1.44;84.75
67430;BME280;54298;52.076;5.264;2023-02-14T07:56:43;103347.0;;;1.62;84.8
67430;BME280;54298;52.076;5.264;2023-02-14T07:58:20;103343.0;;;1.74;84.85
67430;BME280;54298;52.076;5.264;2023-02-14T07:59:56;103351.0;;;1.6;85.45
67430;BME280;54298;52.076;5.264;2023-02-14T08:03:08;103348.0;;;1.69;85.36
67430;BME280;54298;52.076;5.264;2023-02-14T08:04:44;103348.0;;;1.73;86.1
67430;BME280;54298;52.076;5.264;2023-02-14T08:06:21;103347.0;;;1.88;85.89
67430;BME280;54298;52.076;5.264;2023-02-14T08:09:33;103345.0;;;1.96;86.11
67430;BME280;54298;52.076;5.264;2023-02-14T08:11:09;103345.0;;;2.04;86.2
67430;BME280;54298;52.076;5.264;2023-02-14T08:13:01;103344.0;;;2.13;86.38
67430;BME280;54298;52.076;5.264;2023-02-14T08:14:37;103339.00000000001;;;2.15;86.26
67430;BME280;54298;52.076;5.264;2023-02-14T08:17:50;103338.00000000001;;;2.25;86.46
67430;BME280;54298;52.076;5.264;2023-02-14T08:19:27;103342.0;;;2.37;86.06
67430;BME280;54298;52.076;5.264;2023-02-14T08:21:05;103345.0;;;2.37;85.86
67430;BME280;54298;52.076;5.264;2023-02-14T08:24:18;103340.00000000001;;;2.46;85.99
67430;BME280;54298;52.076;5.264;2023-02-14T08:25:54;103342.0;;;2.5;85.64
67430;BME280;54298;52.076;5.264;2023-02-14T08:27:31;103343.0;;;2.59;85.72
67430;BME280;54298;52.076;5.264;2023-02-14T08:29:07;103348.0;;;2.67;85.79
67430;BME280;54298;52.076;5.264;2023-02-14T08:32:21;103351.0;;;2.74;85.5
67430;BME280;54298;52.076;5.264;2023-02-14T08:33:57;103343.0;;;2.79;85.2
67430;BME280;54298;52.076;5.264;2023-02-14T08:35:34;103347.0;;;2.97;85.09
67430;BME280;54298;52.076;5.264;2023-02-14T08:38:47;103341.00000000001;;;3.08;84.88
67430;BME280;54298;52.076;5.264;2023-02-14T08:40:24;103339.00000000001;;;3.26;85.0
67430;BME280;54298;52.076;5.264;2023-02-14T08:42:00;103342.0;;;3.34;85.33
67430;BME280;54298;52.076;5.264;2023-02-14T08:45:13;103345.0;;;3.4;85.41
67430;BME280;54298;52.076;5.264;2023-02-14T08:46:48;103343.0;;;3.58;85.67
67430;BME280;54298;52.076;5.264;2023-02-14T08:48:26;103344.0;;;3.71;85.9
67430;BME280;54298;52.076;5.264;2023-02-14T08:50:03;103341.00000000001;;;3.89;86.28
67430;BME280;54298;52.076;5.264;2023-02-14T08:54:52;103340.00000000001;;;4.2;86.93
67430;BME280;54298;52.076;5.264;2023-02-14T08:56:28;103341.00000000001;;;4.28;87.31
67430;BME280;54298;52.076;5.264;2023-02-14T08:59:43;103333.99999999999;;;4.41;87.73
67430;BME280;54298;52.076;5.264;2023-02-14T09:01:20;103342.0;;;4.64;87.53
67430;BME280;54298;52.076;5.264;2023-02-14T09:02:56;103345.0;;;4.72;87.07
67430;BME280;54298;52.076;5.264;2023-02-14T09:06:12;103341.00000000001;;;4.79;87.32
67430;BME280;54298;52.076;5.264;2023-02-14T09:07:50;103340.00000000001;;;4.97;87.43
67430;BME280;54298;52.076;5.264;2023-02-14T09:09:27;103340.00000000001;;;5.0;87.6
67430;BME280;54298;52.076;5.264;2023-02-14T09:11:06;103338.00000000001;;;5.13;87.76
67430;BME280;54298;52.076;5.264;2023-02-14T09:14:20;103341.00000000001;;;5.28;87.64
67430;BME280;54298;52.076;5.264;2023-02-14T09:15:56;103339.00000000001;;;5.41;87.47
67430;BME280;54298;52.076;5.264;2023-02-14T09:17:33;103334.99999999999;;;5.52;87.05
67430;BME280;54298;52.076;5.264;2023-02-14T09:20:46;103336.99999999999;;;5.59;86.85
67430;BME280;54298;52.076;5.264;2023-02-14T09:22:22;103333.99999999999;;;5.52;86.73
67430;BME280;54298;52.076;5.264;2023-02-14T09:23:58;103332.0;;;5.57;86.82
67430;BME280;54298;52.076;5.264;2023-02-14T09:25:34;103325.0;;;5.73;86.46
67430;BME280;54298;52.076;5.264;2023-02-14T09:28:47;103330.0;;;5.82;85.67
67430;BME280;54298;52.076;5.264;2023-02-14T09:30:23;103330.0;;;5.95;85.47
67430;BME280;54298;52.076;5.264;2023-02-14T09:32:00;103330.0;;;6.03;85.3
67430;BME280;54298;52.076;5.264;2023-02-14T09:37:47;103330.0;;;6.27;84.58
67430;BME280;54298;52.076;5.264;2023-02-14T09:39:55;103324.0;;;6.33;84.33
67430;BME280;54298;52.076;5.264;2023-02-14T09:41:48;103324.0;;;6.42;84.25
67430;BME280;54298;52.076;5.264;2023-02-14T09:43:49;103320.0;;;6.48;83.98
67430;BME280;54298;52.076;5.264;2023-02-14T09:45:30;103323.0;;;6.53;83.64
67430;BME280;54298;52.076;5.264;2023-02-14T09:47:16;103318.0;;;6.61;83.45
67430;BME280;54298;52.076;5.264;2023-02-14T09:48:56;103323.0;;;6.64;83.37
67430;BME280;54298;52.076;5.264;2023-02-14T09:52:20;103318.0;;;6.7;82.8
67430;BME280;54298;52.076;5.264;2023-02-14T09:54:01;103316.00000000001;;;6.76;82.74
67430;BME280;54298;52.076;5.264;2023-02-14T09:55:44;103316.00000000001;;;6.93;82.41
67430;BME280;54298;52.076;5.264;2023-02-14T09:57:35;103316.00000000001;;;6.96;82.0
67430;BME280;54298;52.076;5.264;2023-02-14T09:59:18;103314.00000000001;;;7.06;81.52
67430;BME280;54298;52.076;5.264;2023-02-14T10:02:55;103314.00000000001;;;7.0;81.36
67430;BME280;54298;52.076;5.264;2023-02-14T10:04:34;103311.99999999999;;;7.09;81.28
67430;BME280;54298;52.076;5.264;2023-02-14T10:06:27;103318.0;;;7.2;80.81
67430;BME280;54298;52.076;5.264;2023-02-14T10:08:38;103314.00000000001;;;7.17;80.58
67430;BME280;54298;52.076;5.264;2023-02-14T10:10:21;103314.00000000001;;;7.08;80.38
67430;BME280;54298;52.076;5.264;2023-02-14T10:12:01;103317.0;;;7.21;80.02
67430;BME280;54298;52.076;5.264;2023-02-14T10:13:41;103315.00000000001;;;7.23;79.94
67430;BME280;54298;52.076;5.264;2023-02-14T10:17:06;103317.0;;;7.33;79.7
67430;BME280;54298;52.076;5.264;2023-02-14T10:18:46;103308.99999999999;;;7.42;79.36
67430;BME280;54298;52.076;5.264;2023-02-14T10:20:31;103313.00000000001;;;7.56;79.05
67430;BME280;54298;52.076;5.264;2023-02-14T10:22:14;103308.99999999999;;;7.58;78.59
67430;BME280;54298;52.076;5.264;2023-02-14T10:25:41;103311.99999999999;;;7.67;78.3
67430;BME280;54298;52.076;5.264;2023-02-14T10:27:29;103308.0;;;7.83;78.0
67430;BME280;54298;52.076;5.264;2023-02-14T10:29:10;103309.99999999999;;;7.81;78.06
67430;BME280;54298;52.076;5.264;2023-02-14T10:30:55;103308.99999999999;;;7.94;77.36
67430;BME280;54298;52.076;5.264;2023-02-14T10:32:48;103301.0;;;7.83;77.72
67430;BME280;54298;52.076;5.264;2023-02-14T10:34:34;103305.0;;;8.03;76.97
67430;BME280;54298;52.076;5.264;2023-02-14T10:38:12;103302.0;;;8.14;76.8
67430;BME280;54298;52.076;5.264;2023-02-14T10:40:04;103304.0;;;8.22;76.58
67430;BME280;54298;52.076;5.264;2023-02-14T10:41:59;103300.0;;;8.15;76.48
67430;BME280;54298;52.076;5.264;2023-02-14T10:43:45;103299.0;;;8.23;76.09
67430;BME280;54298;52.076;5.264;2023-02-14T10:45:34;103298.0;;;8.32;75.63
67430;BME280;54298;52.076;5.264;2023-02-14T10:47:25;103293.0;;;8.5;75.36
67430;BME280;54298;52.076;5.264;2023-02-14T10:51:05;103297.0;;;8.53;75.44
67430;BME280;54298;52.076;5.264;2023-02-14T10:52:55;103297.0;;;8.59;75.48
67430;BME280;54298;52.076;5.264;2023-02-14T10:54:41;103295.0;;;8.67;74.81
67430;BME280;54298;52.076;5.264;2023-02-14T10:56:21;103294.0;;;8.64;75.12
67430;BME280;54298;52.076;5.264;2023-02-14T10:58:05;103294.0;;;8.8;74.52
67430;BME280;54298;52.076;5.264;2023-02-14T10:59:49;103295.0;;;8.73;73.97
67430;BME280;54298;52.076;5.264;2023-02-14T11:03:07;103299.0;;;8.9;73.55
67430;BME280;54298;52.076;5.264;2023-02-14T11:04:46;103297.0;;;8.98;73.33
67430;BME280;54298;52.076;5.264;2023-02-14T11:06:23;103290.00000000001;;;9.01;73.2
67430;BME280;54298;52.076;5.264;2023-02-14T11:07:59;103292.0;;;9.06;73.38
67430;BME280;54298;52.076;5.264;2023-02-14T11:11:16;103283.0;;;9.14;73.11
67430;BME280;54298;52.076;5.264;2023-02-14T11:12:56;103282.0;;;9.18;72.33
67430;BME280;54298;52.076;5.264;2023-02-14T11:14:34;103281.0;;;9.14;72.49
67430;BME280;54298;52.076;5.264;2023-02-14T11:18:12;103288.00000000001;;;9.16;72.52
67430;BME280;54298;52.076;5.264;2023-02-14T11:19:56;103284.99999999999;;;9.26;72.22